Plymouth, Pennsylvania
Current Conditions -  °F | °C
As of 6:54 AM on Monday 24 Nov 2014 (Local Time) from KAVP Reporting Station
Overcast Overcast  
Wind Chill: 62°   Ceiling: 2400
Heat Index: 62°   Visibility: 10mi
Dew Point: 56°   Wind: 10mph
Humidity: 80%   Direction: 220°SW
Pressure: 29.57"   Gusts: 18mph
Location:  41.24°N, 75.96°W
Report Text: KAVP 241154Z AUTO 22009G16KT 10SM FEW019 BKN024 OVC080 17/13 A2957 RMK AO2 PK WND 19033/1104 RAE24 SLP009 P0001 60027 70027 T01670133 10167 20106 55001 $
Loading
Personal Weather Stations






























Interactive Weather Map New forecast layout! Learn more

10-Day Weather Forecast

Advertisements
Track Severe Weather on mobile